Meteorología y climatología de Navarra
Datos de la estación - Meteo Navarra

Estación de Aralar GN

Altitud 1344 m.


Datos desde el 26/03/2020 hasta el 27/03/2020 en horario solar
Los datos son PROVISIONALES

Anterior Página 1 de 1 Siguiente Descargar: Formato para Excel 2000 o superior   Formato csv   Formato para OpenOffice Calc
Fecha Temperatura Humedad relativa Radiación global Insolación Precipitación Vel. viento 10 m Vel. viento 10 m Dir. viento 10 m
ºC % W/m² s l/m² m/s km/h º
26/03/2020 0:00 0.9 100 0.0 0 0.0 6.6 23.8 328
26/03/2020 0:10 1.0 100 0.0 0 0.0 7.2 25.7 330
26/03/2020 0:20 1.2 100 0.0 0 0.0 7.0 25.2 326
26/03/2020 0:30 1.1 100 0.0 0 0.0 7.0 25.0 332
26/03/2020 0:40 1.1 100 0.0 0 0.0 6.4 23.0 331
26/03/2020 0:50 1.2 100 0.0 0 0.0 7.0 25.3 327
26/03/2020 1:00 1.2 100 0.0 0 0.0 6.4 23.1 326
26/03/2020 1:10 1.2 100 0.0 0 0.0 5.9 21.1 331
26/03/2020 1:20 1.2 100 0.0 0 0.0 7.6 27.4 329
26/03/2020 1:30 1.2 100 0.0 0 0.0 7.3 26.4 332
26/03/2020 1:40 1.1 100 0.0 0 0.0 6.8 24.6 335
26/03/2020 1:50 1.0 100 0.0 0 0.0 7.4 26.6 317
26/03/2020 2:00 0.9 100 0.0 0 0.0 7.3 26.3 325
26/03/2020 2:10 1.0 100 0.0 0 0.0 7.2 26.0 335
26/03/2020 2:20 1.0 100 0.0 0 0.0 7.5 27.0 333
26/03/2020 2:30 0.9 100 0.0 0 0.0 6.9 24.8 328
26/03/2020 2:40 0.9 100 0.0 0 0.0 7.6 27.3 327
26/03/2020 2:50 0.8 100 0.0 0 0.0 8.8 31.8 334
26/03/2020 3:00 0.7 100 0.0 0 0.0 9.3 33.3 327
26/03/2020 3:10 0.6 100 0.0 0 0.0 8.9 32.0 331
26/03/2020 3:20 0.6 100 0.0 0 0.0 8.5 30.6 332
26/03/2020 3:30 0.5 100 0.0 0 0.0 8.8 31.5 332
26/03/2020 3:40 0.6 100 0.0 0 0.0 9.1 32.8 326
26/03/2020 3:50 0.6 100 0.0 0 0.0 8.1 29.1 327
26/03/2020 4:00 0.5 100 0.0 0 0.0 8.8 31.7 334
26/03/2020 4:10 0.4 100 0.0 0 0.0 7.8 28.2 332
26/03/2020 4:20 0.4 100 0.0 0 0.0 8.8 31.6 336
26/03/2020 4:30 0.3 100 0.0 0 0.0 8.2 29.5 335
26/03/2020 4:40 0.2 100 0.0 0 0.0 8.3 29.9 332
26/03/2020 4:50 0.1 100 0.0 0 0.0 9.3 33.3 335
26/03/2020 5:00 0.1 100 0.0 0 0.0 8.7 31.4 335
26/03/2020 5:10 0.1 100 0.0 0 0.0 9.1 32.6 331
26/03/2020 5:20 -0.1 100 0.0 0 0.0 9.1 32.7 330
26/03/2020 5:30 -0.2 100 0.0 0 0.0 10.4 37.3 335
26/03/2020 5:40 -0.2 100 0.0 0 0.0 9.4 33.7 334
26/03/2020 5:50 -0.2 100 0.0 0 0.0 9.6 34.4 337
26/03/2020 6:00 -0.3 100 0.0 0 0.0 10.6 38.0 336
26/03/2020 6:10 -0.3 100 0.0 0 0.0 10.8 39.0 335
26/03/2020 6:20 -0.5 100 0.0 0 0.0 11.4 41.1 336
26/03/2020 6:30 -0.5 100 0.0 0 0.0 11.8 42.6 334
26/03/2020 6:40 -0.6 100 6.6 0 0.0 12.6 45.3 340
26/03/2020 6:50 -0.8 100 1.6 0 0.0 12.0 43.3 337
26/03/2020 7:00 -0.7 100 20.1 0 0.0 12.5 44.8 335
26/03/2020 7:10 -0.7 100 25.2 0 0.0 11.3 40.6 332
26/03/2020 7:20 -0.8 100 75.0 114 0.0 11.0 39.5 330
26/03/2020 7:30 -0.9 100 64.0 0 0.0 12.1 43.6 335
26/03/2020 7:40 -1.1 100 60.4 0 0.0 10.9 39.2 328
26/03/2020 7:50 -1.0 100 49.6 0 0.0 10.2 36.7 326
26/03/2020 8:00 -1.1 100 39.8 0 0.0 11.5 41.4 326
26/03/2020 8:10 -0.8 100 141.5 108 0.0 13.8 49.6 336
26/03/2020 8:20 -0.7 100 132.4 100 0.0 12.4 44.6 337
26/03/2020 8:30 -0.8 100 122.6 58 0.0 13.0 46.9 335
26/03/2020 8:40 -0.8 99 115.3 18 0.0 12.8 45.9 336
26/03/2020 8:50 -1.1 97 127.4 44 0.0 12.8 46.2 335
26/03/2020 9:00 -0.9 94 258.4 216 0.0 12.8 46.0 336
26/03/2020 9:10 -0.9 91 250.6 142 0.0 10.9 39.3 333
26/03/2020 9:20 -0.7 89 342.6 246 0.0 12.2 43.8 334
26/03/2020 9:30 -0.7 83 328.0 172 0.0 12.6 45.3 335
26/03/2020 9:40 -0.8 84 290.7 112 0.0 12.6 45.5 332
26/03/2020 9:50 -0.8 84 223.2 56 0.0 11.2 40.5 333
26/03/2020 10:00 -0.8 86 260.6 86 0.0 11.5 41.4 337
26/03/2020 10:10 -0.8 86 124.9 0 0.0 10.8 38.9 336
26/03/2020 10:20 -1.0 92 122.5 0 0.0 10.6 38.1 335
26/03/2020 10:30 -0.9 91 353.7 174 0.0 10.0 36.0 338
26/03/2020 10:40 -0.7 91 148.5 10 0.0 10.0 35.9 339
26/03/2020 10:50 -0.8 89 325.9 158 0.0 10.9 39.3 332
26/03/2020 11:00 -0.8 86 531.0 296 0.0 12.4 44.6 340
26/03/2020 11:10 -0.4 82 282.1 88 0.0 10.8 38.8 339
26/03/2020 11:20 -0.8 86 427.9 180 0.0 10.6 38.2 337
26/03/2020 11:30 -0.3 80 730.2 468 0.0 10.3 37.0 336
26/03/2020 11:40 0.1 78 805.0 516 0.0 10.3 37.0 336
26/03/2020 11:50 0.3 70 894.0 598 0.0 10.5 37.8 332
26/03/2020 12:00 0.6 68 881.0 600 0.0 10.0 35.9 338
26/03/2020 12:10 0.7 69 892.0 600 0.0 8.4 30.3 334
26/03/2020 12:20 0.9 70 887.0 600 0.0 8.6 30.8 335
26/03/2020 12:30 1.0 71 853.0 574 0.0 9.7 34.9 340
26/03/2020 12:40 0.8 72 878.0 600 0.0 9.1 32.6 331
26/03/2020 12:50 1.0 70 869.0 588 0.0 8.6 31.0 332
26/03/2020 13:00 0.8 69 877.0 600 0.0 8.6 30.8 330
26/03/2020 13:10 0.8 70 877.0 600 0.0 7.4 26.8 338
26/03/2020 13:20 0.7 68 839.0 586 0.0 7.6 27.4 336
26/03/2020 13:30 0.6 67 848.0 598 0.0 7.5 26.9 336
26/03/2020 13:40 0.5 67 776.3 528 0.0 5.1 18.5 324
26/03/2020 13:50 0.6 68 604.6 348 0.0 6.3 22.6 331
26/03/2020 14:00 0.5 66 721.3 510 0.0 4.9 17.5 332
26/03/2020 14:10 0.6 64 669.4 464 0.0 6.0 21.5 328
26/03/2020 14:20 0.4 66 523.7 346 0.0 5.3 19.2 334
26/03/2020 14:30 0.9 64 742.0 600 0.0 5.4 19.4 335
26/03/2020 14:40 0.6 63 714.5 600 0.0 5.0 18.0 333
26/03/2020 14:50 0.8 62 688.6 600 0.0 5.4 19.5 333
26/03/2020 15:00 0.7 62 660.0 600 0.0 6.0 21.7 331
26/03/2020 15:10 0.5 63 544.7 506 0.0 5.8 20.8 334
26/03/2020 15:20 0.2 66 506.8 500 0.0 6.4 23.2 337
26/03/2020 15:30 0.4 67 513.2 530 0.0 6.1 22.0 337
26/03/2020 15:40 -0.1 68 306.1 256 0.0 6.3 22.6 330
26/03/2020 15:50 -0.8 71 332.0 364 0.0 6.9 24.7 326
26/03/2020 16:00 -0.7 71 316.5 310 0.0 6.7 24.0 333
26/03/2020 16:10 -0.8 74 268.3 304 0.0 6.4 23.0 328
26/03/2020 16:20 -1.0 74 247.5 284 0.0 6.4 23.1 331
26/03/2020 16:30 -0.8 76 227.5 270 0.0 6.2 22.3 328
26/03/2020 16:40 -0.7 76 199.9 248 0.0 4.9 17.7 337
26/03/2020 16:50 -0.9 80 149.7 154 0.0 4.3 15.6 326
26/03/2020 17:00 -1.3 83 198.3 382 0.0 4.3 15.5 328
26/03/2020 17:10 -1.1 82 185.4 484 0.0 4.4 15.8 327
26/03/2020 17:20 -0.9 81 140.3 340 0.0 5.1 18.2 333
26/03/2020 17:30 -1.1 83 113.2 288 0.0 5.2 18.5 337
26/03/2020 17:40 -1.2 86 137.2 578 0.0 4.3 15.6 336
26/03/2020 17:50 -1.3 83 83.6 524 0.0 3.9 14.1 330
26/03/2020 18:00 -1.3 82 70.3 600 0.0 3.4 12.3 335
26/03/2020 18:10 -1.3 85 45.5 600 0.0 4.0 14.2 341
26/03/2020 18:20 -1.4 87 5.7 32 0.0 5.7 20.6 340
26/03/2020 18:30 -1.7 90 0.0 0 0.0 5.8 20.7 332
26/03/2020 18:40 -2.0 93 0.0 0 0.0 5.7 20.6 336
26/03/2020 18:50 -2.2 94 0.0 0 0.0 5.0 18.1 335
26/03/2020 19:00 -2.3 94 0.0 0 0.0 4.1 14.6 328
26/03/2020 19:10 -2.4 95 0.0 0 0.0 3.9 14.1 329
26/03/2020 19:20 -2.3 95 0.0 0 0.0 5.0 17.9 335
26/03/2020 19:30 -2.6 96 0.0 0 0.0 5.6 20.1 334
26/03/2020 19:40 -2.8 95 0.0 0 0.0 6.0 21.5 331
26/03/2020 19:50 -2.8 94 0.0 0 0.0 6.3 22.7 336
26/03/2020 20:00 -2.9 93 0.0 0 0.0 6.0 21.6 338
26/03/2020 20:10 -2.9 94 0.0 0 0.0 5.8 20.9 344
26/03/2020 20:20 -2.8 96 0.0 0 0.0 5.8 21.0 340
26/03/2020 20:30 -2.7 97 0.0 0 0.0 7.9 28.4 342
26/03/2020 20:40 -2.8 97 0.0 0 0.0 7.6 27.3 342
26/03/2020 20:50 -2.8 97 0.0 0 0.0 7.3 26.2 345
26/03/2020 21:00 -3.0 98 0.0 0 0.0 6.9 24.7 342
26/03/2020 21:10 -3.0 98 0.0 0 0.0 6.7 24.0 341
26/03/2020 21:20 -3.1 97 0.0 0 0.0 5.5 19.7 339
26/03/2020 21:30 -3.1 96 0.0 0 0.0 6.5 23.4 346
26/03/2020 21:40 -3.1 95 0.0 0 0.0 5.9 21.3 347
26/03/2020 21:50 -3.0 96 0.0 0 0.0 5.5 19.9 347
26/03/2020 22:00 -3.0 96 0.0 0 0.0 5.6 20.3 345
26/03/2020 22:10 -2.9 97 0.0 0 0.0 6.2 22.4 348
26/03/2020 22:20 -2.9 97 0.0 0 0.0 5.4 19.3 343
26/03/2020 22:30 -2.8 98 0.0 0 0.0 5.3 19.2 346
26/03/2020 22:40 -2.7 98 0.0 0 0.0 5.8 20.9 348
26/03/2020 22:50 -2.9 99 0.0 0 0.0 6.7 23.9 345
26/03/2020 23:00 -2.8 99 0.0 0 0.0 7.6 27.2 351
26/03/2020 23:10 -2.8 99 0.0 0 0.0 7.4 26.7 351
26/03/2020 23:20 -2.8 100 0.0 0 0.0 7.5 27.0 351
26/03/2020 23:30 -2.8 100 0.0 0 0.0 7.4 26.6 351
26/03/2020 23:40 -2.8 100 0.0 0 0.0 7.2 25.8 355
26/03/2020 23:50 -2.8 100 0.0 0 0.0 7.2 26.1 356
Anterior Página 1 de 1 Siguiente
Los datos de precipitación registrados en estaciones que están en cumbres son inferiores a lo real, como consecuencia del efecto del viento y de la nieve.


NOTA: Tipo de datos según el color:
   - Valores diarios o 10 minutos correctos
   - Valores diarios calculados a partir de un número de datos 10 minutos menor que 144 y mayor que 120, o de un número de datos semihorarios menor que 48 y mayor que 40 (caso de las estaciones de INTIA y del Ministerio)
   - Valores diez minutos estimados


Contacto        Enlaces        Aviso legal